createdAt,value
2022-11-17T00:02:00.192Z,9.50
2022-11-17T00:04:30.360Z,9.50
2022-11-17T00:06:58.595Z,9.50
2022-11-17T00:09:25.810Z,9.50
2022-11-17T00:12:11.319Z,9.50
2022-11-17T00:14:40.639Z,9.50
2022-11-17T00:17:12.946Z,9.50
2022-11-17T00:19:58.340Z,9.50
2022-11-17T00:22:25.939Z,9.50
2022-11-17T00:24:52.808Z,9.50
2022-11-17T00:27:19.592Z,9.50
2022-11-17T00:29:46.474Z,9.50
2022-11-17T00:32:33.510Z,9.50
2022-11-17T00:35:01.065Z,9.40
2022-11-17T00:37:30.081Z,9.50
2022-11-17T00:40:00.759Z,9.50
2022-11-17T00:42:27.886Z,9.40
2022-11-17T00:44:54.736Z,9.40
2022-11-17T00:47:21.684Z,9.40
2022-11-17T00:49:48.604Z,9.40
2022-11-17T00:52:15.423Z,9.40
2022-11-17T00:54:42.210Z,9.40
2022-11-17T00:57:08.984Z,9.40
2022-11-17T00:59:35.860Z,9.30
2022-11-17T01:02:02.774Z,9.40
2022-11-17T01:04:29.640Z,9.30
2022-11-17T01:06:56.477Z,9.30
2022-11-17T01:09:24.583Z,9.30
2022-11-17T01:11:53.209Z,9.30
2022-11-17T01:14:26.412Z,9.30
2022-11-17T01:16:54.521Z,9.30
2022-11-17T01:19:23.270Z,9.30
2022-11-17T01:21:50.241Z,9.30
2022-11-17T01:24:17.723Z,9.30
2022-11-17T01:26:46.165Z,9.30
2022-11-17T01:29:14.785Z,9.20
2022-11-17T01:31:45.978Z,9.20
2022-11-17T01:34:13.370Z,9.20
2022-11-17T01:37:01.932Z,9.20
2022-11-17T01:39:30.260Z,9.20
2022-11-17T01:41:57.874Z,9.20
2022-11-17T01:44:48.204Z,9.20
2022-11-17T01:47:36.183Z,9.20
2022-11-17T01:50:15.453Z,9.20
2022-11-17T01:52:43.646Z,9.20
2022-11-17T01:55:11.822Z,9.20
2022-11-17T01:57:55.780Z,9.20
2022-11-17T02:00:22.822Z,9.10
2022-11-17T02:02:50.453Z,9.10
2022-11-17T02:05:48.041Z,9.20
2022-11-17T02:08:16.004Z,9.20
2022-11-17T02:10:48.541Z,9.10
2022-11-17T02:13:19.141Z,9.10
2022-11-17T02:15:46.094Z,9.10
2022-11-17T02:18:13.280Z,9.10
2022-11-17T02:20:53.126Z,9.10
2022-11-17T02:23:28.774Z,9.10
2022-11-17T02:26:04.754Z,9.20
2022-11-17T02:28:52.751Z,9.20
2022-11-17T02:31:30.985Z,9.20
2022-11-17T02:34:33.899Z,9.10
2022-11-17T02:37:20.794Z,9.20
2022-11-17T02:40:14.808Z,9.10
2022-11-17T02:43:32.625Z,9.10
2022-11-17T02:46:40.086Z,9.10
2022-11-17T02:49:27.255Z,9.20
2022-11-17T02:51:56.402Z,9.10
2022-11-17T02:54:26.959Z,9.10
2022-11-17T02:56:53.971Z,9.10
2022-11-17T02:59:45.239Z,9.10
2022-11-17T03:02:21.412Z,9.10
2022-11-17T03:05:01.253Z,9.10
2022-11-17T03:07:54.111Z,9.10
2022-11-17T03:10:27.161Z,9.10
2022-11-17T03:13:16.356Z,9.10
2022-11-17T03:15:55.316Z,9.10
2022-11-17T03:18:43.861Z,9.10
2022-11-17T03:21:19.251Z,9.00
2022-11-17T03:23:46.053Z,9.00
2022-11-17T03:26:17.057Z,9.00
2022-11-17T03:28:46.579Z,9.00
2022-11-17T03:31:16.741Z,9.00
2022-11-17T03:33:47.141Z,9.00
2022-11-17T03:36:19.662Z,9.00
2022-11-17T03:38:55.407Z,8.90
2022-11-17T03:41:23.624Z,8.90
2022-11-17T03:43:52.660Z,8.80
2022-11-17T03:46:22.248Z,8.80
2022-11-17T03:48:58.341Z,8.70
2022-11-17T03:51:28.511Z,8.60
2022-11-17T03:53:55.994Z,8.60
2022-11-17T03:56:34.540Z,8.50
2022-11-17T03:59:23.907Z,8.40
2022-11-17T04:01:51.441Z,8.40
2022-11-17T04:04:20.722Z,8.30
2022-11-17T04:06:49.987Z,8.30
2022-11-17T04:09:22.895Z,8.30
2022-11-17T04:12:09.770Z,8.30
2022-11-17T04:14:55.465Z,8.30
2022-11-17T04:17:22.341Z,8.30
2022-11-17T04:19:49.135Z,8.40
2022-11-17T04:22:15.948Z,8.40
2022-11-17T04:24:42.762Z,8.40
2022-11-17T04:27:28.202Z,8.40
2022-11-17T04:29:55.021Z,8.40
2022-11-17T04:32:21.842Z,8.30
2022-11-17T04:34:48.675Z,8.30
2022-11-17T04:37:18.208Z,8.30
2022-11-17T04:39:45.965Z,8.30
2022-11-17T04:42:13.024Z,8.20
2022-11-17T04:44:39.904Z,8.20
2022-11-17T04:47:07.137Z,8.20
2022-11-17T04:49:34.291Z,8.20
2022-11-17T04:52:01.536Z,8.30
2022-11-17T04:54:28.706Z,8.30
2022-11-17T04:56:56.130Z,8.30
2022-11-17T04:59:23.745Z,8.30
2022-11-17T05:01:50.877Z,8.30
2022-11-17T05:04:39.006Z,8.30
2022-11-17T05:07:06.323Z,8.30
2022-11-17T05:09:33.226Z,8.30
2022-11-17T05:12:18.555Z,8.30
2022-11-17T05:14:47.734Z,8.40
2022-11-17T05:17:14.570Z,8.40
2022-11-17T05:19:46.994Z,8.50
2022-11-17T05:22:43.060Z,8.50
2022-11-17T05:25:10.203Z,8.50
2022-11-17T05:27:37.990Z,8.50
2022-11-17T05:30:07.004Z,8.50
2022-11-17T05:32:33.875Z,8.50
2022-11-17T05:35:00.731Z,8.50
2022-11-17T05:37:27.606Z,8.50
2022-11-17T05:39:54.438Z,8.50
2022-11-17T05:42:21.431Z,8.50
2022-11-17T05:44:48.801Z,8.50
2022-11-17T05:47:16.203Z,8.40
2022-11-17T05:49:43.330Z,8.40
2022-11-17T05:52:10.367Z,8.30
2022-11-17T05:54:37.218Z,8.30
2022-11-17T05:57:09.892Z,8.30
2022-11-17T05:59:50.190Z,8.20
2022-11-17T06:02:31.355Z,8.20
2022-11-17T06:04:58.175Z,8.20
2022-11-17T06:07:25.217Z,8.10
2022-11-17T06:09:52.568Z,8.10
2022-11-17T06:12:19.389Z,8.10
2022-11-17T06:14:46.173Z,8.10
2022-11-17T06:17:23.003Z,8.10
2022-11-17T06:20:05.791Z,8.10
2022-11-17T06:22:33.516Z,8.20
2022-11-17T06:25:02.185Z,8.20
2022-11-17T06:27:32.023Z,8.20
2022-11-17T06:30:01.782Z,8.20
2022-11-17T06:32:28.953Z,8.20
2022-11-17T06:34:56.604Z,8.20
2022-11-17T06:37:24.961Z,8.20
2022-11-17T06:39:52.054Z,8.30
2022-11-17T06:42:18.920Z,8.40
2022-11-17T06:44:45.748Z,8.50
2022-11-17T06:47:12.582Z,8.60
2022-11-17T06:49:39.383Z,8.80
2022-11-17T06:52:06.203Z,8.90
2022-11-17T06:54:33.030Z,9.10
2022-11-17T06:56:59.916Z,9.20
2022-11-17T06:59:26.797Z,9.40
2022-11-17T07:01:53.594Z,9.50
2022-11-17T07:04:20.540Z,9.60
2022-11-17T07:06:47.332Z,9.70
2022-11-17T07:09:14.167Z,9.90
2022-11-17T07:11:41.024Z,10.10
2022-11-17T07:14:07.901Z,10.30
2022-11-17T07:16:34.697Z,10.50
2022-11-17T07:19:03.849Z,10.70
2022-11-17T07:21:31.229Z,10.90
2022-11-17T07:23:58.123Z,11.10
2022-11-17T07:26:25.028Z,11.30
2022-11-17T07:28:51.871Z,11.60
2022-11-17T07:31:18.738Z,11.80
2022-11-17T07:33:45.603Z,12.10
2022-11-17T07:36:14.706Z,12.40
2022-11-17T07:38:41.538Z,12.50
2022-11-17T07:41:11.997Z,12.40
2022-11-17T07:43:39.164Z,12.30
2022-11-17T07:46:07.793Z,12.10
2022-11-17T07:48:34.973Z,11.80
2022-11-17T07:51:03.433Z,11.70
2022-11-17T07:53:31.708Z,11.60
2022-11-17T07:56:06.388Z,11.50
2022-11-17T07:58:34.114Z,11.40
2022-11-17T08:01:09.537Z,11.30
2022-11-17T08:03:36.708Z,11.20
2022-11-17T08:06:04.621Z,11.20
2022-11-17T08:08:31.857Z,11.20
2022-11-17T08:11:09.854Z,11.20
2022-11-17T08:13:37.205Z,11.10
2022-11-17T08:16:04.329Z,11.00
2022-11-17T08:18:31.573Z,10.90
2022-11-17T08:21:02.500Z,10.90
2022-11-17T08:23:29.365Z,10.90
2022-11-17T08:25:56.307Z,10.90
2022-11-17T08:28:23.602Z,10.80
2022-11-17T08:30:50.512Z,10.80
2022-11-17T08:33:17.544Z,10.80
2022-11-17T08:35:44.574Z,10.80
2022-11-17T08:38:15.556Z,11.00
2022-11-17T08:40:42.998Z,11.00
2022-11-17T08:43:09.857Z,11.60
2022-11-17T08:45:36.729Z,12.10
2022-11-17T08:48:04.640Z,12.60
2022-11-17T08:50:31.463Z,13.00
2022-11-17T08:52:58.263Z,13.40
2022-11-17T08:55:26.488Z,13.90
2022-11-17T08:57:53.544Z,14.40
2022-11-17T09:00:21.928Z,14.50
2022-11-17T09:02:48.815Z,14.50
2022-11-17T09:05:15.673Z,14.60
2022-11-17T09:07:42.555Z,14.60
2022-11-17T09:10:11.228Z,14.80
2022-11-17T09:12:38.355Z,15.20
2022-11-17T09:15:06.163Z,15.40
2022-11-17T09:17:33.449Z,15.10
2022-11-17T09:20:00.346Z,15.00
2022-11-17T09:22:27.233Z,15.00
2022-11-17T09:24:54.061Z,14.60
2022-11-17T09:27:20.851Z,14.30
2022-11-17T09:29:48.110Z,14.00
2022-11-17T09:32:16.838Z,13.80
2022-11-17T09:34:43.964Z,13.50
2022-11-17T09:37:10.792Z,13.30
2022-11-17T09:39:37.692Z,13.10
2022-11-17T09:42:04.870Z,13.20
2022-11-17T09:44:31.651Z,13.70
2022-11-17T09:46:58.769Z,14.10
2022-11-17T09:49:45.135Z,14.20
2022-11-17T09:52:24.305Z,14.10
2022-11-17T09:54:54.091Z,14.20
2022-11-17T09:57:38.007Z,14.50
2022-11-17T10:00:20.024Z,14.90
2022-11-17T10:02:47.882Z,15.10
2022-11-17T10:05:30.484Z,15.30
2022-11-17T10:08:03.657Z,15.40
2022-11-17T10:10:50.327Z,15.50
2022-11-17T10:13:28.160Z,15.50
2022-11-17T10:16:01.170Z,15.30
2022-11-17T10:18:37.597Z,15.10
2022-11-17T10:21:06.916Z,15.00
2022-11-17T10:23:46.907Z,15.10
2022-11-17T10:26:16.078Z,15.20
2022-11-17T10:28:43.124Z,15.10
2022-11-17T10:31:16.160Z,15.00
2022-11-17T10:33:48.781Z,14.80
2022-11-17T10:36:30.904Z,14.50
2022-11-17T10:38:59.938Z,14.40
2022-11-17T10:41:30.593Z,14.30
2022-11-17T10:44:02.272Z,14.20
2022-11-17T10:46:38.204Z,14.10
2022-11-17T10:49:25.419Z,14.00
2022-11-17T10:52:24.356Z,13.80
2022-11-17T10:54:51.945Z,13.70
2022-11-17T10:57:23.887Z,13.60
2022-11-17T10:59:56.826Z,13.50
2022-11-17T11:02:39.215Z,13.50
2022-11-17T11:05:13.575Z,13.50
2022-11-17T11:07:41.205Z,13.60
2022-11-17T11:10:17.989Z,13.50
2022-11-17T11:13:12.892Z,13.50
2022-11-17T11:15:39.709Z,13.50
2022-11-17T11:18:18.286Z,13.40
2022-11-17T11:21:04.699Z,13.40
2022-11-17T11:23:43.969Z,13.50
2022-11-17T11:26:55.371Z,13.50
2022-11-17T11:29:59.622Z,13.50
2022-11-17T11:32:41.331Z,13.50
2022-11-17T11:35:20.319Z,13.50
2022-11-17T11:38:26.927Z,13.40
2022-11-17T11:41:11.986Z,13.40
2022-11-17T11:44:13.416Z,13.30
2022-11-17T11:47:17.856Z,13.20
2022-11-17T11:50:10.041Z,13.20
2022-11-17T11:52:41.369Z,13.10
2022-11-17T11:55:36.737Z,13.00
2022-11-17T11:58:24.305Z,12.90
2022-11-17T12:01:04.610Z,12.90
2022-11-17T12:03:43.477Z,12.90
2022-11-17T12:06:37.351Z,12.90
2022-11-17T12:09:09.713Z,12.80
2022-11-17T12:11:58.786Z,12.80
2022-11-17T12:14:25.781Z,12.80
2022-11-17T12:17:15.316Z,12.70
2022-11-17T12:19:53.995Z,12.70
2022-11-17T12:22:29.795Z,12.70
2022-11-17T12:25:00.133Z,12.70
2022-11-17T12:27:36.046Z,12.70
2022-11-17T12:30:25.944Z,12.60
2022-11-17T12:32:54.292Z,12.70
2022-11-17T12:35:40.114Z,12.70
2022-11-17T12:38:16.478Z,12.60
2022-11-17T12:40:54.051Z,12.70
2022-11-17T12:43:25.910Z,12.60
2022-11-17T12:45:52.709Z,12.70
2022-11-17T12:48:41.918Z,12.60
2022-11-17T12:51:42.177Z,12.60
2022-11-17T12:54:25.939Z,12.70
2022-11-17T12:57:18.363Z,12.80
2022-11-17T13:00:02.937Z,13.00
2022-11-17T13:02:35.693Z,13.10
2022-11-17T13:05:14.694Z,13.10
2022-11-17T13:07:41.800Z,13.00
2022-11-17T13:10:31.396Z,13.00
2022-11-17T13:13:13.350Z,13.00
2022-11-17T13:15:42.704Z,13.00
2022-11-17T13:18:28.011Z,12.90
2022-11-17T13:20:54.852Z,12.90
2022-11-17T13:23:25.897Z,12.80
2022-11-17T13:26:10.876Z,12.70
2022-11-17T13:28:38.084Z,12.70
2022-11-17T13:31:05.074Z,12.70
2022-11-17T13:33:38.382Z,12.60
2022-11-17T13:36:15.379Z,12.60
2022-11-17T13:38:50.670Z,12.50
2022-11-17T13:41:20.516Z,12.40
2022-11-17T13:43:48.800Z,12.30
2022-11-17T13:46:15.930Z,12.20
2022-11-17T13:48:48.183Z,12.20
2022-11-17T13:51:25.557Z,12.10
2022-11-17T13:54:11.533Z,12.10
2022-11-17T13:56:43.219Z,12.10
2022-11-17T13:59:18.854Z,12.10
2022-11-17T14:01:45.927Z,12.00
2022-11-17T14:04:23.810Z,11.90
2022-11-17T14:07:02.357Z,11.90
2022-11-17T14:09:31.744Z,11.80
2022-11-17T14:11:58.986Z,11.70
2022-11-17T14:14:38.254Z,11.70
2022-11-17T14:17:13.136Z,11.70
2022-11-17T14:19:40.155Z,11.70
2022-11-17T14:22:09.876Z,11.70
2022-11-17T14:24:38.079Z,11.60
2022-11-17T14:27:26.737Z,11.60
2022-11-17T14:29:53.562Z,11.60
2022-11-17T14:32:20.360Z,11.60
2022-11-17T14:34:47.187Z,11.50
2022-11-17T14:37:14.121Z,11.50
2022-11-17T14:39:40.937Z,11.50
2022-11-17T14:42:09.643Z,11.50
2022-11-17T14:44:36.526Z,11.50
2022-11-17T14:47:03.733Z,11.50
2022-11-17T14:49:30.596Z,11.40
2022-11-17T14:51:59.308Z,11.40
2022-11-17T14:54:26.468Z,11.30
2022-11-17T14:56:53.330Z,11.30
2022-11-17T14:59:20.134Z,11.20
2022-11-17T15:01:46.953Z,11.20
2022-11-17T15:04:48.174Z,11.10
2022-11-17T15:07:02.866Z,11.10
2022-11-17T15:09:29.818Z,11.10
2022-11-17T15:11:56.616Z,11.00
2022-11-17T15:14:23.441Z,11.00
2022-11-17T15:16:50.304Z,10.90
2022-11-17T15:19:17.219Z,11.00
2022-11-17T15:21:44.065Z,11.00
2022-11-17T15:24:10.892Z,11.00
2022-11-17T15:26:37.760Z,10.90
2022-11-17T15:29:04.971Z,10.90
2022-11-17T15:31:31.834Z,10.90
2022-11-17T15:33:58.740Z,10.90
2022-11-17T15:36:25.696Z,10.80
2022-11-17T15:38:53.505Z,10.80
2022-11-17T15:41:21.343Z,10.80
2022-11-17T15:43:48.381Z,10.70
2022-11-17T15:46:17.474Z,10.70
2022-11-17T15:48:46.453Z,10.70
2022-11-17T15:51:16.127Z,10.70
2022-11-17T15:53:44.243Z,10.70
2022-11-17T15:56:14.270Z,10.70
2022-11-17T15:58:42.604Z,10.60
2022-11-17T16:01:12.553Z,10.60
2022-11-17T16:03:41.376Z,10.60
2022-11-17T16:06:09.401Z,10.50
2022-11-17T16:08:37.127Z,10.50
2022-11-17T16:11:04.520Z,10.50
2022-11-17T16:13:31.686Z,10.40
2022-11-17T16:15:58.529Z,10.40
2022-11-17T16:18:25.765Z,10.40
2022-11-17T16:20:52.784Z,10.40
2022-11-17T16:23:19.964Z,10.30
2022-11-17T16:25:48.508Z,10.30
2022-11-17T16:28:16.869Z,10.30
2022-11-17T16:30:43.894Z,10.30
2022-11-17T16:33:14.041Z,10.30
2022-11-17T16:35:41.635Z,10.30
2022-11-17T16:38:14.440Z,10.30
2022-11-17T16:40:41.405Z,10.30
2022-11-17T16:43:11.935Z,10.20
2022-11-17T16:45:45.899Z,10.20
2022-11-17T16:48:12.946Z,10.20
2022-11-17T16:50:41.269Z,10.20
2022-11-17T16:53:08.093Z,10.30
2022-11-17T16:55:36.215Z,10.30
2022-11-17T16:58:05.111Z,10.40
2022-11-17T17:00:32.801Z,10.40
2022-11-17T17:03:00.151Z,10.40
2022-11-17T17:05:29.640Z,10.50
2022-11-17T17:07:57.093Z,10.50
2022-11-17T17:10:25.111Z,10.50
2022-11-17T17:12:52.842Z,10.50
2022-11-17T17:15:20.136Z,10.50
2022-11-17T17:17:47.266Z,10.50
2022-11-17T17:20:14.079Z,10.50
2022-11-17T17:22:41.858Z,10.50
2022-11-17T17:25:09.400Z,10.50
2022-11-17T17:27:36.809Z,10.50
2022-11-17T17:30:04.843Z,10.50
2022-11-17T17:32:31.704Z,10.50
2022-11-17T17:34:58.949Z,10.50
2022-11-17T17:37:25.880Z,10.50
2022-11-17T17:39:52.732Z,10.50
2022-11-17T17:42:20.586Z,10.50
2022-11-17T17:44:48.952Z,10.50
2022-11-17T17:47:16.063Z,10.60
2022-11-17T17:49:43.313Z,10.60
2022-11-17T17:52:13.809Z,10.70
2022-11-17T17:54:40.999Z,10.70
2022-11-17T17:57:08.509Z,10.80
2022-11-17T17:59:35.813Z,10.80
2022-11-17T18:02:02.873Z,10.80
2022-11-17T18:04:30.221Z,10.80
2022-11-17T18:06:57.948Z,10.80
2022-11-17T18:09:25.153Z,10.80
2022-11-17T18:11:52.525Z,10.90
2022-11-17T18:14:24.568Z,10.80
2022-11-17T18:16:52.371Z,10.90
2022-11-17T18:19:20.472Z,10.90
2022-11-17T18:21:47.779Z,10.90
2022-11-17T18:24:15.246Z,10.90
2022-11-17T18:26:44.559Z,10.80
2022-11-17T18:29:16.916Z,10.90
2022-11-17T18:31:47.177Z,10.90
2022-11-17T18:34:26.128Z,10.90
2022-11-17T18:36:57.920Z,10.90
2022-11-17T18:39:25.641Z,10.90
2022-11-17T18:41:52.536Z,10.90
2022-11-17T18:44:20.039Z,10.80
2022-11-17T18:46:47.255Z,10.90
2022-11-17T18:49:15.101Z,10.90
2022-11-17T18:51:42.764Z,10.80
2022-11-17T18:54:11.783Z,10.90
2022-11-17T18:56:39.475Z,10.80
2022-11-17T18:59:12.024Z,10.90
2022-11-17T19:01:41.957Z,10.80
2022-11-17T19:04:11.068Z,10.80
2022-11-17T19:06:38.590Z,10.70
2022-11-17T19:09:07.584Z,10.70
2022-11-17T19:11:35.673Z,10.70
2022-11-17T19:14:03.477Z,10.70
2022-11-17T19:16:32.288Z,10.70
2022-11-17T19:19:00.178Z,10.70
2022-11-17T19:21:30.643Z,10.70
2022-11-17T19:24:00.511Z,10.70
2022-11-17T19:26:33.820Z,10.70
2022-11-17T19:29:03.908Z,10.60
2022-11-17T19:31:31.663Z,10.60
2022-11-17T19:33:59.873Z,10.60
2022-11-17T19:36:30.236Z,10.60
2022-11-17T19:38:58.900Z,10.60
2022-11-17T19:41:29.395Z,10.50
2022-11-17T19:43:58.288Z,10.50
2022-11-17T19:46:27.729Z,10.40
2022-11-17T19:48:56.047Z,10.40
2022-11-17T19:51:29.809Z,10.40
2022-11-17T19:54:00.543Z,10.40
2022-11-17T19:56:28.394Z,10.40
2022-11-17T19:58:56.713Z,10.40
2022-11-17T20:01:26.144Z,10.40
2022-11-17T20:03:54.654Z,10.40
2022-11-17T20:06:27.600Z,10.30
2022-11-17T20:08:55.990Z,10.30
2022-11-17T20:11:25.448Z,10.30
2022-11-17T20:13:53.537Z,10.30
2022-11-17T20:16:26.672Z,10.30
2022-11-17T20:18:56.221Z,10.30
2022-11-17T20:21:24.985Z,10.30
2022-11-17T20:23:52.668Z,10.30
2022-11-17T20:26:25.533Z,10.30
2022-11-17T20:28:53.407Z,10.30
2022-11-17T20:31:26.404Z,10.20
2022-11-17T20:34:00.892Z,10.20
2022-11-17T20:36:30.277Z,10.20
2022-11-17T20:39:00.789Z,10.20
2022-11-17T20:41:30.787Z,10.10
2022-11-17T20:43:59.926Z,10.20
2022-11-17T20:46:27.319Z,10.30
2022-11-17T20:48:55.173Z,10.30
2022-11-17T20:51:25.370Z,10.30
2022-11-17T20:53:53.026Z,10.40
2022-11-17T20:56:20.593Z,10.40
2022-11-17T20:58:47.825Z,10.30
2022-11-17T21:01:17.915Z,10.30
2022-11-17T21:03:45.636Z,10.30
2022-11-17T21:06:15.273Z,10.30
2022-11-17T21:08:44.962Z,10.30
2022-11-17T21:11:35.078Z,10.40
2022-11-17T21:14:02.886Z,10.40
2022-11-17T21:16:30.077Z,10.40
2022-11-17T21:18:57.113Z,10.40
2022-11-17T21:21:23.947Z,10.30
2022-11-17T21:23:54.149Z,10.30
2022-11-17T21:26:23.100Z,10.20
2022-11-17T21:28:50.677Z,10.20
2022-11-17T21:31:28.327Z,10.20
2022-11-17T21:34:04.436Z,10.30
2022-11-17T21:36:32.437Z,10.30
2022-11-17T21:39:00.037Z,10.30
2022-11-17T21:41:29.628Z,10.30
2022-11-17T21:44:00.224Z,10.30
2022-11-17T21:46:33.065Z,10.30
2022-11-17T21:49:00.747Z,10.30
2022-11-17T21:51:33.510Z,10.30
2022-11-17T21:54:02.868Z,10.30
2022-11-17T21:56:31.914Z,10.30
2022-11-17T21:59:04.395Z,10.20
2022-11-17T22:01:31.982Z,10.20
2022-11-17T22:03:59.185Z,10.20
2022-11-17T22:06:26.519Z,10.20
2022-11-17T22:08:55.311Z,10.20
2022-11-17T22:11:37.653Z,10.20
2022-11-17T22:14:14.954Z,10.10
2022-11-17T22:16:48.687Z,10.10
2022-11-17T22:19:17.618Z,10.10
2022-11-17T22:21:45.913Z,10.10
2022-11-17T22:24:13.255Z,10.10
2022-11-17T22:26:42.257Z,10.10
2022-11-17T22:29:14.140Z,10.00
2022-11-17T22:31:41.499Z,10.00
2022-11-17T22:34:08.339Z,10.00
2022-11-17T22:36:35.125Z,10.00
2022-11-17T22:39:02.280Z,10.00
2022-11-17T22:41:29.157Z,9.90
2022-11-17T22:43:57.400Z,9.90
2022-11-17T22:46:27.074Z,9.80
2022-11-17T22:48:54.512Z,9.80
2022-11-17T22:51:40.378Z,9.80
2022-11-17T22:54:08.094Z,9.80
2022-11-17T22:56:35.282Z,9.70
2022-11-17T22:59:02.099Z,9.70
2022-11-17T23:01:28.934Z,9.70
2022-11-17T23:03:55.784Z,9.70
2022-11-17T23:06:23.023Z,9.70
2022-11-17T23:08:50.175Z,9.70
2022-11-17T23:14:09.500Z,9.60
2022-11-17T23:16:37.652Z,9.50
2022-11-17T23:19:05.514Z,9.50
2022-11-17T23:21:32.405Z,9.50
2022-11-17T23:23:59.287Z,9.30
2022-11-17T23:26:26.238Z,9.20
2022-11-17T23:28:53.033Z,9.20
2022-11-17T23:31:20.536Z,9.30
2022-11-17T23:33:48.110Z,9.20
2022-11-17T23:36:16.230Z,9.20
2022-11-17T23:38:43.178Z,9.20
2022-11-17T23:41:13.408Z,9.10
2022-11-17T23:43:40.554Z,9.10
2022-11-17T23:46:16.854Z,9.00
2022-11-17T23:48:44.879Z,8.90
2022-11-17T23:51:16.503Z,8.90
2022-11-17T23:53:43.619Z,8.90
2022-11-17T23:56:11.210Z,8.90
2022-11-17T23:58:38.312Z,8.80
